»·PEaware :: DAL1574 KOAK-KPSP

DAL1574 :: KOAK-KPSP

FLIGHT INFORMATION

Flight Status: Arrived
Operator:
Delta Air Lines
More flights by this operator :: More flights under this callsign
Pilot: Kevin M. (7)
Aircraft: BOEING 737-800
(B738)
More flights by this aircraft type
Origin: KOAK Metro Oakland Intl
United States
Destination: KPSP Palm Springs Intl
United States
More flights between these airports :: More routes between these airports
Route: +CNDEL4 LOSHN PMD V137 PSP
File this flight plan on PilotEdge
Remarks:
Altitude:
(Current/Filed)
37,000ft
Speed:
(Current/Filed)
468kts
Departed: 18-Apr-19 01:18 PM
Arrived: 18-Apr-19 02:18 PM
Distance/Time
Traveled:
363nm/0:59
Distance/Time
To Go:
Arrived

Flight Plot

Page will automatically refresh every two minutes.


Map Options




Map Legend


Flown Route
Filed Route
Departure Airport
Arrival Airport
Navaid (VOR, NDB)
Fix

Horizontal Profiles

Position Reports

Time Latitude Longitude Heading Altitude Ground
Speed
18-Apr-19 13:02 37.710414 -122.216958 63 11ft 0kts
18-Apr-19 13:03 37.710414 -122.216958 63 11ft 0kts
18-Apr-19 13:04 37.710414 -122.216958 63 11ft 0kts
18-Apr-19 13:05 37.710414 -122.216958 63 11ft 0kts
18-Apr-19 13:06 37.710414 -122.216958 63 11ft 0kts
18-Apr-19 13:07 37.710414 -122.216958 63 11ft 0kts
18-Apr-19 13:08 37.710414 -122.216959 63 11ft 0kts
18-Apr-19 13:09 37.710243 -122.217387 63 11ft 2kts
18-Apr-19 13:10 37.710279 -122.217775 128 11ft 0kts
18-Apr-19 13:11 37.710279 -122.217775 128 11ft 0kts
18-Apr-19 13:12 37.709648 -122.216719 126 11ft 18kts
18-Apr-19 13:13 37.704761 -122.215327 128 11ft 27kts
18-Apr-19 13:14 37.702950 -122.213646 160 11ft 0kts
18-Apr-19 13:15 37.702950 -122.213646 160 11ft 0kts
18-Apr-19 13:16 37.702454 -122.213566 183 11ft 10kts
18-Apr-19 13:17 37.711162 -122.228909 308 73ft 168kts
18-Apr-19 13:18 37.747097 -122.282280 310 1944ft 236kts
18-Apr-19 13:19 37.792614 -122.351069 305 4287ft 268kts
18-Apr-19 13:20 37.761630 -122.421152 191 8106ft 285kts
18-Apr-19 13:21 37.680060 -122.437659 187 10833ft 334kts
18-Apr-19 13:22 37.576347 -122.457739 187 12929ft 404kts
18-Apr-19 13:23 37.466003 -122.437508 156 16556ft 415kts
18-Apr-19 13:24 37.392485 -122.328744 118 19758ft 432kts
18-Apr-19 13:25 37.317980 -122.206950 130 22587ft 451kts
18-Apr-19 13:26 37.236853 -122.082186 130 25131ft 472kts
18-Apr-19 13:27 37.152578 -121.952798 131 27617ft 488kts
18-Apr-19 13:28 37.066531 -121.821079 131 30476ft 488kts
18-Apr-19 13:29 36.980265 -121.689512 131 33086ft 486kts
18-Apr-19 13:30 36.894892 -121.559799 131 35452ft 480kts
18-Apr-19 13:31 36.810068 -121.431423 131 37152ft 479kts
18-Apr-19 13:32 36.725777 -121.304328 132 37165ft 474kts
18-Apr-19 13:33 36.641772 -121.178145 132 37164ft 474kts
18-Apr-19 13:34 36.557119 -121.051479 132 37164ft 478kts
18-Apr-19 13:35 36.471589 -120.923891 131 37167ft 481kts
18-Apr-19 13:36 36.386354 -120.796252 131 37185ft 480kts
18-Apr-19 13:37 36.301034 -120.668952 131 37186ft 480kts
18-Apr-19 13:38 36.215253 -120.541452 131 37189ft 481kts
18-Apr-19 13:39 36.129394 -120.414320 131 37188ft 480kts
18-Apr-19 13:40 36.043705 -120.287900 132 37194ft 480kts
18-Apr-19 13:41 35.957798 -120.161603 132 37197ft 480kts
18-Apr-19 13:42 35.872188 -120.036220 132 37198ft 480kts
18-Apr-19 13:43 35.791147 -119.905834 127 37197ft 482kts
18-Apr-19 13:44 35.711284 -119.773642 129 37183ft 481kts
18-Apr-19 13:45 35.630303 -119.642936 129 37175ft 481kts
18-Apr-19 13:46 35.548993 -119.512240 129 37175ft 481kts
18-Apr-19 13:47 35.467920 -119.382419 129 37178ft 481kts
18-Apr-19 13:48 35.386529 -119.252545 129 37179ft 481kts
18-Apr-19 13:49 35.305036 -119.122979 129 37182ft 481kts
18-Apr-19 13:50 35.223013 -118.993068 129 37182ft 482kts
18-Apr-19 13:51 35.143463 -118.867484 129 37210ft 460kts
18-Apr-19 13:52 35.064124 -118.742788 129 37280ft 465kts
18-Apr-19 13:53 34.983461 -118.616466 129 34599ft 478kts
18-Apr-19 13:54 34.902016 -118.489305 130 31670ft 466kts
18-Apr-19 13:55 34.822835 -118.366159 130 27989ft 470kts
18-Apr-19 13:56 34.744293 -118.244457 130 24709ft 453kts
18-Apr-19 13:57 34.668777 -118.124419 129 24256ft 449kts
18-Apr-19 13:58 34.599966 -117.998410 120 24255ft 451kts
18-Apr-19 14:00 34.539742 -117.865094 120 24250ft 451kts
18-Apr-19 14:01 34.479228 -117.732549 120 24237ft 448kts
18-Apr-19 14:02 34.419149 -117.601730 120 22913ft 433kts
18-Apr-19 14:03 34.361943 -117.477660 120 20169ft 410kts
18-Apr-19 14:04 34.307699 -117.360488 119 17578ft 389kts
18-Apr-19 14:05 34.253352 -117.243586 120 17164ft 404kts
18-Apr-19 14:06 34.198309 -117.125615 120 15663ft 396kts
18-Apr-19 14:07 34.145001 -117.011700 118 14069ft 389kts
18-Apr-19 14:08 34.089427 -116.893335 118 14048ft 383kts
18-Apr-19 14:09 34.041958 -116.792665 118 14022ft 311kts
18-Apr-19 14:10 33.997956 -116.699462 118 11914ft 325kts
18-Apr-19 14:11 33.954194 -116.607293 119 9200ft 314kts
18-Apr-19 14:12 33.904504 -116.523332 138 6396ft 306kts
18-Apr-19 14:13 33.845086 -116.454715 135 4003ft 292kts
18-Apr-19 14:14 33.786293 -116.394256 170 2312ft 258kts
18-Apr-19 14:15 33.764270 -116.443835 301 1849ft 204kts
18-Apr-19 14:16 33.799486 -116.480644 322 867ft 149kts
18-Apr-19 14:17 33.831086 -116.508903 323 434ft 83kts
18-Apr-19 14:18 33.830095 -116.510166 144 434ft 39kts
18-Apr-19 14:19 33.822986 -116.505017 289 414ft 9kts

Navigation Log

Ident Type
Flight plan parsing failed, navigation log unavailable